createdAt,value
2018-04-14T00:01:15.638Z,100895.98
2018-04-14T00:03:43.290Z,100890.75
2018-04-14T00:06:10.966Z,100885.53
2018-04-14T00:08:38.631Z,100878.14
2018-04-14T00:11:06.279Z,100863.77
2018-04-14T00:13:33.951Z,100871.62
2018-04-14T00:16:01.563Z,100878.13
2018-04-14T00:18:29.207Z,100879.44
2018-04-14T00:20:56.825Z,100882.94
2018-04-14T00:23:24.506Z,100889.44
2018-04-14T00:25:52.163Z,100889.83
2018-04-14T00:28:19.803Z,100898.11
2018-04-14T00:30:47.430Z,100905.06
2018-04-14T00:33:15.659Z,100905.91
2018-04-14T00:35:43.274Z,100901.56
2018-04-14T00:38:10.915Z,100910.67
2018-04-14T00:40:38.532Z,100911.08
2018-04-14T00:43:06.192Z,100910.59
2018-04-14T00:45:33.872Z,100907.11
2018-04-14T00:48:01.487Z,100911.02
2018-04-14T00:50:29.195Z,100913.58
2018-04-14T00:52:56.859Z,100914.87
2018-04-14T00:55:24.498Z,100920.06
2018-04-14T00:57:52.116Z,100927.42
2018-04-14T01:00:19.854Z,100929.61
2018-04-14T01:02:47.471Z,100919.61
2018-04-14T01:05:15.107Z,100926.56
2018-04-14T01:07:42.724Z,100938.31
2018-04-14T01:10:10.363Z,100941.33
2018-04-14T01:12:37.978Z,100945.22
2018-04-14T01:15:05.622Z,100945.23
2018-04-14T01:17:33.240Z,100947.84
2018-04-14T01:20:00.938Z,100949.99
2018-04-14T01:22:28.551Z,100939.10
2018-04-14T01:24:56.194Z,100933.85
2018-04-14T01:27:23.808Z,100932.55
2018-04-14T01:29:51.476Z,100932.50
2018-04-14T01:32:19.094Z,100930.28
2018-04-14T01:34:46.919Z,100932.41
2018-04-14T01:37:14.577Z,100934.09
2018-04-14T01:39:42.191Z,100928.41
2018-04-14T01:42:09.826Z,100921.41
2018-04-14T01:44:37.440Z,100921.80
2018-04-14T01:47:05.095Z,100915.66
2018-04-14T01:49:32.719Z,100921.27
2018-04-14T01:52:00.451Z,100915.55
2018-04-14T01:54:28.115Z,100926.36
2018-04-14T01:56:55.751Z,100914.20
2018-04-14T01:59:23.367Z,100915.91
2018-04-14T02:01:51.006Z,100920.20
2018-04-14T02:04:18.663Z,100920.61
2018-04-14T02:06:46.328Z,100910.64
2018-04-14T02:09:13.942Z,100918.02
2018-04-14T02:11:41.583Z,100924.95
2018-04-14T02:14:09.204Z,100929.75
2018-04-14T02:16:36.843Z,100924.13
2018-04-14T02:19:04.535Z,100917.64
2018-04-14T02:21:32.173Z,100929.84
2018-04-14T02:23:59.958Z,100932.00
2018-04-14T02:26:27.630Z,100932.89
2018-04-14T02:28:55.243Z,100933.79
2018-04-14T02:31:22.950Z,100939.02
2018-04-14T02:33:50.614Z,100945.98
2018-04-14T02:36:18.231Z,100950.33
2018-04-14T02:38:45.943Z,100946.02
2018-04-14T02:41:13.609Z,100951.27
2018-04-14T02:43:41.246Z,100952.59
2018-04-14T02:46:08.868Z,100958.69
2018-04-14T02:48:36.511Z,100951.33
2018-04-14T02:51:04.150Z,100946.59
2018-04-14T02:53:31.819Z,100953.98
2018-04-14T02:55:59.475Z,100962.25
2018-04-14T02:58:27.139Z,100976.17
2018-04-14T03:00:54.757Z,100999.66
2018-04-14T03:03:22.396Z,101004.92
2018-04-14T03:05:50.019Z,101003.17
2018-04-14T03:08:17.659Z,101004.05
2018-04-14T03:10:45.275Z,101007.09
2018-04-14T03:13:12.911Z,101004.48
2018-04-14T03:15:40.595Z,101002.70
2018-04-14T03:18:08.235Z,100997.92
2018-04-14T03:20:35.889Z,101004.41
2018-04-14T03:23:03.528Z,101010.52
2018-04-14T03:25:31.143Z,101001.40
2018-04-14T03:27:58.882Z,101008.31
2018-04-14T03:30:26.495Z,101013.52
2018-04-14T03:32:54.215Z,101020.91
2018-04-14T03:35:21.877Z,101023.48
2018-04-14T03:37:49.535Z,101018.69
2018-04-14T03:40:17.173Z,101027.81
2018-04-14T03:42:44.859Z,101038.66
2018-04-14T03:45:12.526Z,101032.59
2018-04-14T03:47:40.141Z,101031.28
2018-04-14T03:50:07.779Z,101031.27
2018-04-14T03:52:35.414Z,101038.23
2018-04-14T03:55:03.071Z,101040.37
2018-04-14T03:57:30.734Z,101042.15
2018-04-14T03:59:58.403Z,101039.08
2018-04-14T04:02:26.027Z,101046.46
2018-04-14T04:04:53.667Z,101047.30
2018-04-14T04:07:21.282Z,101049.47
2018-04-14T04:09:48.919Z,101048.61
2018-04-14T04:12:16.535Z,101059.44
2018-04-14T04:14:44.173Z,101061.15
2018-04-14T04:17:11.816Z,101059.85
2018-04-14T04:19:51.304Z,101063.30
2018-04-14T04:22:30.707Z,101067.20
2018-04-14T04:25:10.055Z,101062.00
2018-04-14T04:27:37.711Z,101061.13
2018-04-14T04:30:05.370Z,101067.63
2018-04-14T04:32:33.019Z,101065.03
2018-04-14T04:35:00.643Z,101063.76
2018-04-14T04:37:28.278Z,101071.59
2018-04-14T04:39:55.921Z,101064.67
2018-04-14T04:42:23.570Z,101067.30
2018-04-14T04:44:51.244Z,101056.90
2018-04-14T04:47:18.885Z,101057.80
2018-04-14T04:49:46.527Z,101061.31
2018-04-14T04:52:14.230Z,101063.54
2018-04-14T04:54:41.895Z,101058.78
2018-04-14T04:57:09.552Z,101064.89
2018-04-14T04:59:37.169Z,101067.51
2018-04-14T05:02:04.815Z,101066.21
2018-04-14T05:04:32.542Z,101076.66
2018-04-14T05:07:00.180Z,101086.20
2018-04-14T05:09:28.235Z,101091.02
2018-04-14T05:11:55.873Z,101091.44
2018-04-14T05:14:23.487Z,101094.08
2018-04-14T05:16:51.131Z,101093.61
2018-04-14T05:19:18.826Z,101101.05
2018-04-14T05:21:46.474Z,101102.78
2018-04-14T05:24:14.144Z,101108.02
2018-04-14T05:26:41.814Z,101112.38
2018-04-14T05:29:09.474Z,101112.81
2018-04-14T05:31:37.242Z,101116.75
2018-04-14T05:34:05.527Z,101121.96
2018-04-14T05:36:33.147Z,101122.82
2018-04-14T05:39:00.963Z,101125.45
2018-04-14T05:41:28.607Z,101127.63
2018-04-14T05:43:56.271Z,101120.24
2018-04-14T05:46:23.935Z,101124.58
2018-04-14T05:48:51.606Z,101125.48
2018-04-14T05:51:19.224Z,101128.50
2018-04-14T05:53:46.923Z,101131.13
2018-04-14T05:56:14.567Z,101137.64
2018-04-14T05:58:42.248Z,101135.47
2018-04-14T06:01:09.863Z,101136.77
2018-04-14T06:03:37.506Z,101136.75
2018-04-14T06:06:05.236Z,101131.97
2018-04-14T06:08:32.898Z,101134.17
2018-04-14T06:11:00.515Z,101137.20
2018-04-14T06:13:28.150Z,101136.77
2018-04-14T06:15:55.783Z,101141.57
2018-04-14T06:18:23.438Z,101137.69
2018-04-14T06:20:51.050Z,101137.69
2018-04-14T06:23:18.693Z,101139.45
2018-04-14T06:25:46.311Z,101141.17
2018-04-14T06:28:13.969Z,101140.34
2018-04-14T06:30:41.591Z,101141.20
2018-04-14T06:33:09.227Z,101148.17
2018-04-14T06:35:36.869Z,101146.89
2018-04-14T06:38:04.528Z,101149.96
2018-04-14T06:40:32.144Z,101156.50
2018-04-14T06:42:59.762Z,101158.26
2018-04-14T06:45:27.406Z,101159.55
2018-04-14T06:47:55.031Z,101158.70
2018-04-14T06:50:22.751Z,101167.42
2018-04-14T06:52:50.419Z,101162.63
2018-04-14T06:55:18.092Z,101167.88
2018-04-14T06:57:45.711Z,101169.61
2018-04-14T07:00:13.346Z,101167.91
2018-04-14T07:02:40.963Z,101173.98
2018-04-14T07:05:08.598Z,101179.65
2018-04-14T07:07:36.211Z,101185.76
2018-04-14T07:10:03.858Z,101187.49
2018-04-14T07:12:31.513Z,101191.44
2018-04-14T07:14:59.275Z,101195.77
2018-04-14T07:17:26.895Z,101196.23
2018-04-14T07:19:54.599Z,101208.42
2018-04-14T07:22:22.295Z,101220.59
2018-04-14T07:24:49.930Z,101225.34
2018-04-14T07:27:17.595Z,101228.75
2018-04-14T07:29:45.250Z,101237.35
2018-04-14T07:32:12.863Z,101243.80
2018-04-14T07:34:40.504Z,101244.13
2018-04-14T07:37:08.121Z,101252.28
2018-04-14T07:39:35.799Z,101249.97
2018-04-14T07:42:03.459Z,101256.00
2018-04-14T07:44:31.124Z,101261.98
2018-04-14T07:46:58.770Z,101262.33
2018-04-14T07:49:27.150Z,101261.36
2018-04-14T07:51:55.379Z,101269.09
2018-04-14T07:54:23.145Z,101273.77
2018-04-14T07:56:50.787Z,101275.00
2018-04-14T07:59:18.403Z,101287.48
2018-04-14T08:01:46.583Z,101287.81
2018-04-14T08:04:14.271Z,101288.17
2018-04-14T08:06:41.932Z,101290.27
2018-04-14T08:09:09.595Z,101296.66
2018-04-14T08:11:37.355Z,101298.31
2018-04-14T08:14:04.918Z,101300.88
2018-04-14T08:16:32.558Z,101300.80
2018-04-14T08:19:00.178Z,101316.81
2018-04-14T08:21:27.815Z,101316.77
2018-04-14T08:23:55.434Z,101325.83
2018-04-14T08:26:23.075Z,101327.14
2018-04-14T08:28:50.687Z,101330.60
2018-04-14T08:31:18.323Z,101332.77
2018-04-14T08:33:45.942Z,101338.37
2018-04-14T08:36:13.584Z,101345.74
2018-04-14T08:38:41.203Z,101343.57
2018-04-14T08:41:08.894Z,101341.84
2018-04-14T08:43:36.509Z,101334.03
2018-04-14T08:46:04.167Z,101340.93
2018-04-14T08:48:31.783Z,101338.80
2018-04-14T08:51:01.071Z,101340.53
2018-04-14T08:53:28.712Z,101348.39
2018-04-14T08:55:56.338Z,101347.12
2018-04-14T08:58:24.070Z,101355.49
2018-04-14T09:00:51.730Z,101356.48
2018-04-14T09:03:19.405Z,101355.70
2018-04-14T09:05:47.023Z,101364.02
2018-04-14T09:08:14.719Z,101368.95
2018-04-14T09:10:42.389Z,101374.35
2018-04-14T09:13:10.032Z,101373.63
2018-04-14T09:15:37.648Z,101370.38
2018-04-14T09:18:05.291Z,101380.98
2018-04-14T09:20:32.912Z,101371.59
2018-04-14T09:23:00.591Z,101377.00
2018-04-14T09:25:28.260Z,101383.30
2018-04-14T09:27:55.922Z,101386.02
2018-04-14T09:30:23.578Z,101388.28
2018-04-14T09:32:51.208Z,101388.34
2018-04-14T09:35:18.835Z,101387.47
2018-04-14T09:37:46.467Z,101391.38
2018-04-14T09:40:14.127Z,101398.37
2018-04-14T09:42:41.762Z,101400.98
2018-04-14T09:45:09.371Z,101404.83
2018-04-14T09:47:37.094Z,101413.94
2018-04-14T09:50:04.699Z,101412.16
2018-04-14T09:52:32.333Z,101422.50
2018-04-14T09:55:00.008Z,101424.98
2018-04-14T09:57:27.671Z,101433.11
2018-04-14T09:59:55.335Z,101432.17
2018-04-14T10:02:27.376Z,101428.16
2018-04-14T10:04:55.007Z,101441.56
2018-04-14T10:07:22.619Z,101443.66
2018-04-14T10:09:50.277Z,101448.84
2018-04-14T10:12:17.943Z,101453.57
2018-04-14T10:14:45.593Z,101451.69
2018-04-14T10:17:13.211Z,101452.52
2018-04-14T10:19:40.850Z,101459.43
2018-04-14T10:22:08.454Z,101460.73
2018-04-14T10:24:36.090Z,101464.17
2018-04-14T10:27:04.801Z,101463.70
2018-04-14T10:29:32.395Z,101468.03
2018-04-14T10:32:00.055Z,101472.85
2018-04-14T10:34:27.691Z,101473.72
2018-04-14T10:36:55.307Z,101478.57
2018-04-14T10:39:22.946Z,101482.48
2018-04-14T10:41:50.611Z,101488.59
2018-04-14T10:44:18.254Z,101486.86
2018-04-14T10:46:45.867Z,101489.86
2018-04-14T10:49:13.503Z,101488.52
2018-04-14T10:51:41.115Z,101494.99
2018-04-14T10:54:08.822Z,101492.31
2018-04-14T10:56:36.439Z,101502.30
2018-04-14T10:59:04.147Z,101503.52
2018-04-14T11:01:31.758Z,101505.69
2018-04-14T11:03:59.395Z,101512.20
2018-04-14T11:06:27.014Z,101513.06
2018-04-14T11:08:54.707Z,101516.97
2018-04-14T11:11:22.362Z,101517.02
2018-04-14T11:13:49.978Z,101522.70
2018-04-14T11:16:17.618Z,101522.70
2018-04-14T11:18:45.231Z,101521.40
2018-04-14T11:21:12.906Z,101525.34
2018-04-14T11:23:40.523Z,101526.66
2018-04-14T11:26:08.163Z,101534.51
2018-04-14T11:28:35.815Z,101530.64
2018-04-14T11:31:03.456Z,101531.55
2018-04-14T11:33:31.070Z,101539.41
2018-04-14T11:35:58.710Z,101536.33
2018-04-14T11:38:26.328Z,101545.45
2018-04-14T11:40:54.164Z,101543.71
2018-04-14T11:43:21.821Z,101548.48
2018-04-14T11:45:49.541Z,101551.05
2018-04-14T11:48:17.247Z,101551.02
2018-04-14T11:50:45.055Z,101557.52
2018-04-14T11:53:12.678Z,101561.47
2018-04-14T11:55:40.635Z,101564.08
2018-04-14T11:58:08.259Z,101572.37
2018-04-14T12:00:35.899Z,101576.28
2018-04-14T12:03:03.516Z,101577.15
2018-04-14T12:05:31.242Z,101583.66
2018-04-14T12:07:58.864Z,101591.00
2018-04-14T12:10:26.503Z,101587.96
2018-04-14T12:12:54.131Z,101590.61
2018-04-14T12:15:21.771Z,101586.70
2018-04-14T12:17:49.388Z,101605.38
2018-04-14T12:20:17.119Z,101600.16
2018-04-14T12:22:44.783Z,101600.60
2018-04-14T12:25:12.398Z,101601.91
2018-04-14T12:27:40.035Z,101609.75
2018-04-14T12:30:07.647Z,101609.76
2018-04-14T12:32:35.282Z,101611.50
2018-04-14T12:35:02.895Z,101615.92
2018-04-14T12:37:30.551Z,101615.05
2018-04-14T12:39:58.310Z,101609.87
2018-04-14T12:42:25.963Z,101616.40
2018-04-14T12:44:53.611Z,101619.87
2018-04-14T12:47:21.303Z,101619.87
2018-04-14T12:49:48.966Z,101623.83
2018-04-14T12:52:16.602Z,101622.12
2018-04-14T12:54:44.220Z,101627.39
2018-04-14T12:57:11.863Z,101623.13
2018-04-14T12:59:39.484Z,101627.98
2018-04-14T13:02:07.123Z,101626.30
2018-04-14T13:04:34.738Z,101632.03
2018-04-14T13:07:02.493Z,101629.94
2018-04-14T13:09:30.111Z,101629.59
2018-04-14T13:11:57.810Z,101637.06
2018-04-14T13:14:25.507Z,101636.27
2018-04-14T13:16:53.154Z,101630.74
2018-04-14T13:19:21.895Z,101637.89
2018-04-14T13:21:49.536Z,101638.47
2018-04-14T13:24:17.272Z,101648.62
2018-04-14T13:26:45.031Z,101636.08
2018-04-14T13:29:12.758Z,101641.41
2018-04-14T13:31:40.459Z,101635.42
2018-04-14T13:34:08.079Z,101646.30
2018-04-14T13:36:35.879Z,101652.42
2018-04-14T13:39:03.551Z,101642.45
2018-04-14T13:41:31.212Z,101647.70
2018-04-14T13:43:58.874Z,101651.66
2018-04-14T13:46:26.501Z,101647.84
2018-04-14T13:48:54.151Z,101651.85
2018-04-14T13:51:21.763Z,101659.34
2018-04-14T13:53:49.423Z,101660.75
2018-04-14T13:56:17.038Z,101660.44
2018-04-14T13:58:44.675Z,101665.80
2018-04-14T14:01:12.307Z,101661.53
2018-04-14T14:03:39.979Z,101668.56
2018-04-14T14:06:07.595Z,101663.39
2018-04-14T14:08:35.230Z,101669.11
2018-04-14T14:11:02.966Z,101668.26
2018-04-14T14:13:30.622Z,101662.62
2018-04-14T14:15:58.239Z,101673.55
2018-04-14T14:18:26.142Z,101659.16
2018-04-14T14:20:53.758Z,101670.52
2018-04-14T14:23:21.471Z,101671.82
2018-04-14T14:25:49.107Z,101672.27
2018-04-14T14:28:16.799Z,101672.61
2018-04-14T14:30:44.463Z,101677.37
2018-04-14T14:33:12.116Z,101672.56
2018-04-14T14:35:39.882Z,101679.91
2018-04-14T14:38:07.648Z,101683.80
2018-04-14T14:40:35.264Z,101681.16
2018-04-14T14:43:02.907Z,101682.00
2018-04-14T14:45:30.523Z,101689.41
2018-04-14T14:47:58.153Z,101684.19
2018-04-14T14:50:28.659Z,101686.30
2018-04-14T14:52:56.275Z,101682.36
2018-04-14T14:55:23.919Z,101688.83
2018-04-14T14:57:51.543Z,101689.23
2018-04-14T15:00:19.727Z,101692.28
2018-04-14T15:02:48.131Z,101685.75
2018-04-14T15:05:15.849Z,101692.72
2018-04-14T15:07:43.503Z,101696.20
2018-04-14T15:10:11.143Z,101687.02
2018-04-14T15:12:38.763Z,101687.40
2018-04-14T15:15:06.406Z,101691.22
2018-04-14T15:17:34.714Z,101690.31
2018-04-14T15:20:02.521Z,101689.84
2018-04-14T15:22:30.215Z,101693.33
2018-04-14T15:24:58.050Z,101693.33
2018-04-14T15:27:25.669Z,101695.00
2018-04-14T15:29:53.315Z,101694.10
2018-04-14T15:32:20.947Z,101692.73
2018-04-14T15:34:48.591Z,101702.27
2018-04-14T15:37:16.266Z,101694.00
2018-04-14T15:39:43.934Z,101706.22
2018-04-14T15:42:11.596Z,101700.56
2018-04-14T15:44:39.256Z,101704.52
2018-04-14T15:47:06.871Z,101702.34
2018-04-14T15:49:34.536Z,101713.69
2018-04-14T15:52:02.316Z,101714.92
2018-04-14T15:54:30.064Z,101720.05
2018-04-14T15:56:57.763Z,101726.53
2018-04-14T15:59:25.387Z,101724.75
2018-04-14T16:01:53.197Z,101719.09
2018-04-14T16:04:20.959Z,101725.59
2018-04-14T16:06:48.717Z,101727.33
2018-04-14T16:09:17.240Z,101734.25
2018-04-14T16:11:44.978Z,101738.13
2018-04-14T16:14:12.735Z,101732.44
2018-04-14T16:16:40.435Z,101743.23
2018-04-14T16:19:08.070Z,101742.33
2018-04-14T16:21:35.832Z,101746.13
2018-04-14T16:24:03.476Z,101750.00
2018-04-14T16:26:31.123Z,101742.09
2018-04-14T16:28:58.740Z,101748.58
2018-04-14T16:31:26.485Z,101756.36
2018-04-14T16:33:54.150Z,101759.36
2018-04-14T16:36:21.811Z,101763.62
2018-04-14T16:38:49.427Z,101766.55
2018-04-14T16:41:17.134Z,101773.84
2018-04-14T16:43:44.752Z,101765.41
2018-04-14T16:46:12.391Z,101774.00
2018-04-14T16:48:40.024Z,101776.91
2018-04-14T16:51:07.674Z,101775.02
2018-04-14T16:53:35.290Z,101775.75
2018-04-14T16:56:02.932Z,101775.22
2018-04-14T16:58:30.571Z,101785.98
2018-04-14T17:00:58.198Z,101791.09
2018-04-14T17:03:25.826Z,101786.22
2018-04-14T17:05:53.456Z,101786.09
2018-04-14T17:08:21.109Z,101780.38
2018-04-14T17:10:48.982Z,101797.27
2018-04-14T17:13:16.628Z,101792.38
2018-04-14T17:15:44.239Z,101791.89
2018-04-14T17:18:11.884Z,101796.61
2018-04-14T17:20:39.531Z,101799.17
2018-04-14T17:23:07.167Z,101797.81
2018-04-14T17:25:34.774Z,101793.43
2018-04-14T17:28:02.424Z,101798.63
2018-04-14T17:30:30.042Z,101800.30
2018-04-14T17:32:57.674Z,101794.61
2018-04-14T17:35:25.284Z,101794.12
2018-04-14T17:37:52.918Z,101791.89
2018-04-14T17:40:20.539Z,101789.23
2018-04-14T17:42:48.179Z,101789.63
2018-04-14T17:45:15.799Z,101791.30
2018-04-14T17:47:43.447Z,101794.72
2018-04-14T17:50:11.076Z,101789.45
2018-04-14T17:52:38.752Z,101789.01
2018-04-14T17:55:06.381Z,101791.56
2018-04-14T17:57:34.070Z,101787.66
2018-04-14T18:00:01.779Z,101787.22
2018-04-14T18:02:29.470Z,101794.98
2018-04-14T18:04:57.062Z,101794.97
2018-04-14T18:07:24.814Z,101801.44
2018-04-14T18:09:52.480Z,101796.28
2018-04-14T18:12:20.139Z,101799.37
2018-04-14T18:14:47.803Z,101794.60
2018-04-14T18:17:15.560Z,101786.36
2018-04-14T18:19:43.265Z,101789.39
2018-04-14T18:22:10.879Z,101787.66
2018-04-14T18:24:38.541Z,101792.86
2018-04-14T18:27:06.155Z,101782.87
2018-04-14T18:29:33.799Z,101785.45
2018-04-14T18:32:01.447Z,101778.92
2018-04-14T18:34:29.112Z,101781.91
2018-04-14T18:36:56.766Z,101778.80
2018-04-14T18:39:24.410Z,101780.44
2018-04-14T18:41:52.031Z,101788.23
2018-04-14T18:44:19.675Z,101779.08
2018-04-14T18:46:47.292Z,101780.38
2018-04-14T18:49:14.933Z,101783.84
2018-04-14T18:51:42.643Z,101780.31
2018-04-14T18:54:10.288Z,101778.09
2018-04-14T18:56:37.963Z,101779.78
2018-04-14T18:59:05.602Z,101788.39
2018-04-14T19:01:33.219Z,101792.62
2018-04-14T19:04:00.951Z,101786.47
2018-04-14T19:06:28.616Z,101795.94
2018-04-14T19:08:56.275Z,101806.25
2018-04-14T19:11:23.908Z,101808.72
2018-04-14T19:13:51.600Z,101809.41
2018-04-14T19:16:19.239Z,101810.02
2018-04-14T19:18:46.855Z,101804.74
2018-04-14T19:21:14.492Z,101807.16
2018-04-14T19:23:42.119Z,101814.39
2018-04-14T19:26:09.776Z,101813.33
2018-04-14T19:28:37.403Z,101817.81
2018-04-14T19:31:05.040Z,101826.27
2018-04-14T19:33:32.699Z,101831.25
2018-04-14T19:36:00.362Z,101822.02
2018-04-14T19:38:28.023Z,101832.72
2018-04-14T19:40:55.672Z,101830.98
2018-04-14T19:43:23.344Z,101840.95
2018-04-14T19:45:50.959Z,101837.90
2018-04-14T19:48:18.674Z,101840.48
2018-04-14T19:50:46.339Z,101841.28
2018-04-14T19:53:14.478Z,101849.02
2018-04-14T19:55:42.179Z,101844.98
2018-04-14T19:58:09.802Z,101845.70
2018-04-14T20:00:37.503Z,101846.87
2018-04-14T20:03:05.118Z,101848.88
2018-04-14T20:05:32.758Z,101840.94
2018-04-14T20:08:00.395Z,101839.12
2018-04-14T20:10:28.011Z,101845.91
2018-04-14T20:12:55.648Z,101845.75
2018-04-14T20:15:23.372Z,101843.02
2018-04-14T20:17:51.014Z,101844.59
2018-04-14T20:20:18.627Z,101854.02
2018-04-14T20:22:46.271Z,101850.91
2018-04-14T20:25:13.939Z,101856.47
2018-04-14T20:27:41.589Z,101857.25
2018-04-14T20:30:09.257Z,101858.48
2018-04-14T20:32:36.903Z,101862.80
2018-04-14T20:35:04.610Z,101861.08
2018-04-14T20:37:32.335Z,101857.69
2018-04-14T20:39:59.999Z,101871.62
2018-04-14T20:42:27.643Z,101873.43
2018-04-14T20:44:55.327Z,101873.50
2018-04-14T20:47:22.967Z,101877.92
2018-04-14T20:49:50.584Z,101874.52
2018-04-14T20:52:18.223Z,101873.67
2018-04-14T20:54:45.966Z,101866.81
2018-04-14T20:57:13.627Z,101866.36
2018-04-14T20:59:41.243Z,101866.38
2018-04-14T21:02:08.888Z,101862.06
2018-04-14T21:04:36.527Z,101867.32
2018-04-14T21:07:04.168Z,101862.58
2018-04-14T21:09:31.846Z,101864.37
2018-04-14T21:11:59.491Z,101868.34
2018-04-14T21:14:27.126Z,101870.56
2018-04-14T21:16:54.835Z,101868.84
2018-04-14T21:19:22.583Z,101864.58
2018-04-14T21:21:50.195Z,101864.95
2018-04-14T21:24:17.835Z,101870.64
2018-04-14T21:26:45.500Z,101867.61
2018-04-14T21:29:13.147Z,101870.16
2018-04-14T21:31:40.771Z,101865.41
2018-04-14T21:34:08.411Z,101864.58
2018-04-14T21:36:36.039Z,101866.75
2018-04-14T21:39:03.682Z,101863.66
2018-04-14T21:41:31.361Z,101866.23
2018-04-14T21:43:59.023Z,101869.65
2018-04-14T21:46:26.638Z,101870.05
2018-04-14T21:48:54.279Z,101876.92
2018-04-14T21:51:21.892Z,101875.61
2018-04-14T21:53:49.555Z,101876.86
2018-04-14T21:56:17.180Z,101878.56
2018-04-14T21:58:44.815Z,101878.55
2018-04-14T22:01:15.184Z,101877.63
2018-04-14T22:03:42.835Z,101874.97
2018-04-14T22:06:10.459Z,101877.05
2018-04-14T22:08:38.100Z,101878.77
2018-04-14T22:11:05.862Z,101881.79
2018-04-14T22:13:33.503Z,101884.34
2018-04-14T22:16:01.171Z,101880.41
2018-04-14T22:18:28.819Z,101877.25
2018-04-14T22:20:56.444Z,101882.78
2018-04-14T22:23:24.083Z,101880.47
2018-04-14T22:25:51.703Z,101878.98
2018-04-14T22:28:19.351Z,101876.23
2018-04-14T22:30:46.966Z,101880.41
2018-04-14T22:33:14.582Z,101879.84
2018-04-14T22:35:42.239Z,101874.54
2018-04-14T22:38:09.955Z,101876.19
2018-04-14T22:40:37.597Z,101879.14
2018-04-14T22:43:05.287Z,101881.23
2018-04-14T22:45:32.947Z,101869.45
2018-04-14T22:48:00.563Z,101874.47
2018-04-14T22:50:28.266Z,101882.96
2018-04-14T22:52:55.882Z,101883.22
2018-04-14T22:55:23.670Z,101876.58
2018-04-14T22:57:51.359Z,101880.38
2018-04-14T23:00:18.994Z,101883.68
2018-04-14T23:02:46.623Z,101882.25
2018-04-14T23:05:14.267Z,101894.28
2018-04-14T23:07:41.892Z,101901.12
2018-04-14T23:10:09.530Z,101904.13
2018-04-14T23:12:37.144Z,101898.10
2018-04-14T23:15:04.783Z,101892.13
2018-04-14T23:17:32.459Z,101884.41
2018-04-14T23:20:00.102Z,101888.30
2018-04-14T23:22:27.715Z,101897.39
2018-04-14T23:24:55.351Z,101890.91
2018-04-14T23:27:22.968Z,101894.41
2018-04-14T23:29:50.607Z,101889.27
2018-04-14T23:32:18.318Z,101896.20
2018-04-14T23:34:46.082Z,101892.76
2018-04-14T23:37:13.745Z,101893.69
2018-04-14T23:39:41.383Z,101886.38
2018-04-14T23:42:09.078Z,101885.58
2018-04-14T23:44:36.728Z,101887.31
2018-04-14T23:47:04.402Z,101882.55
2018-04-14T23:49:32.063Z,101879.52
2018-04-14T23:51:59.686Z,101871.73
2018-04-14T23:54:27.307Z,101861.78
2018-04-14T23:56:54.942Z,101861.30
2018-04-14T23:59:22.558Z,101862.56
